Time;durP1;ratioP1;P1;durP2;ratioP2;P2;SDS_P1;SDS_P2;PMS_P1;PMS_P2;Temp;Humidity;BMP_temperature;BMP_pressure;BME280_temperature;BME280_humidity;BME280_pressure;Samples;Min_cycle;Max_cycle;Signal;HPM_P1;HPM_P2
2022/01/06 00:01:03;;;;;;;;;75.25;51.00;;;;;;;;4072768;33;51418;-50
2022/01/06 00:03:31;;;;;;;;;77.75;59.00;;;;;;;;4954194;28;79438;-48
2022/01/06 00:05:57;;;;;;;;;72.75;56.00;;;;;;;;4952074;28;84103;-50
2022/01/06 00:08:22;;;;;;;;;78.75;60.75;;;;;;;;4870423;28;88289;-47
2022/01/06 00:10:49;;;;;;;;;78.25;57.00;;;;;;;;4965367;28;82216;-50
2022/01/06 00:15:11;;;;;;;;;74.25;55.25;;;;;;;;4144389;33;51380;-48
2022/01/06 00:23:45;;;;;;;;;87.50;61.00;;;;;;;;4957363;28;51134;-47
2022/01/06 00:26:29;;;;;;;;;84.00;61.00;;;;;;;;4957477;28;51202;-51
2022/01/06 00:29:14;;;;;;;;;72.50;54.50;;;;;;;;4957307;28;51304;-50
2022/01/06 00:31:59;;;;;;;;;82.25;58.75;;;;;;;;4958325;28;51168;-45
2022/01/06 00:34:43;;;;;;;;;78.75;60.00;;;;;;;;4976683;28;51213;-48
2022/01/06 00:37:27;;;;;;;;;78.25;57.75;;;;;;;;4958018;28;51048;-50
2022/01/06 00:40:12;;;;;;;;;78.50;63.75;;;;;;;;4956767;28;51145;-53
2022/01/06 00:42:56;;;;;;;;;79.00;68.00;;;;;;;;4957499;28;51107;-46
2022/01/06 00:45:41;;;;;;;;;81.25;65.75;;;;;;;;4956953;28;51091;-49
2022/01/06 00:48:25;;;;;;;;;80.00;63.00;;;;;;;;4957119;28;51104;-47
2022/01/06 00:51:10;;;;;;;;;91.50;69.25;;;;;;;;4956924;28;51649;-49
2022/01/06 00:53:54;;;;;;;;;95.50;71.50;;;;;;;;4957046;28;51171;-46
2022/01/06 00:56:39;;;;;;;;;90.50;66.75;;;;;;;;4957174;28;51123;-50
2022/01/06 00:59:23;;;;;;;;;82.25;69.50;;;;;;;;4956600;28;51431;-48
2022/01/06 01:02:07;;;;;;;;;92.75;74.00;;;;;;;;4956805;28;50961;-49
2022/01/06 01:04:52;;;;;;;;;87.00;68.00;;;;;;;;4956367;28;51385;-51
2022/01/06 01:07:36;;;;;;;;;94.00;69.75;;;;;;;;4957025;28;51025;-48
2022/01/06 01:10:21;;;;;;;;;77.75;58.75;;;;;;;;4956278;28;51288;-45
2022/01/06 01:13:11;;;;;;;;;90.25;67.00;;;;;;;;4956413;28;51207;-48
2022/01/06 01:15:58;;;;;;;;;92.25;75.00;;;;;;;;4959044;28;51612;-50
2022/01/06 01:18:45;;;;;;;;;101.50;82.00;;;;;;;;4975961;28;51179;-48
2022/01/06 01:21:30;;;;;;;;;102.25;78.25;;;;;;;;4967188;28;51367;-47
2022/01/06 01:24:14;;;;;;;;;103.50;84.25;;;;;;;;4955115;28;51107;-45
2022/01/06 01:26:58;;;;;;;;;96.25;81.00;;;;;;;;4943642;28;51124;-49
2022/01/06 01:29:57;;;;;;;;;97.50;78.50;;;;;;;;4943197;28;51039;-51
2022/01/06 01:32:49;;;;;;;;;107.50;87.50;;;;;;;;4943700;28;51162;-50
2022/01/06 01:35:33;;;;;;;;;93.00;81.00;;;;;;;;4942478;28;51177;-51
2022/01/06 01:38:17;;;;;;;;;98.00;79.75;;;;;;;;4940461;28;51028;-49
2022/01/06 01:41:02;;;;;;;;;101.75;82.75;;;;;;;;4942936;28;51543;-47
2022/01/06 01:43:47;;;;;;;;;100.25;82.00;;;;;;;;4942652;28;51145;-49
2022/01/06 01:46:33;;;;;;;;;90.00;73.00;;;;;;;;4943318;28;51255;-49
2022/01/06 01:50:11;;;;;;;;;96.50;74.75;;;;;;;;4942983;28;51099;-51
2022/01/06 01:52:21;;;;;;;;;90.50;77.00;;;;;;;;4944420;28;51134;-50
2022/01/06 01:55:06;;;;;;;;;94.00;79.00;;;;;;;;4942489;28;51072;-49
2022/01/06 01:57:51;;;;;;;;;104.00;80.25;;;;;;;;4943193;28;51071;-48
2022/01/06 02:00:35;;;;;;;;;88.75;74.00;;;;;;;;4942684;28;51534;-51
2022/01/06 02:03:19;;;;;;;;;89.25;76.00;;;;;;;;4942696;28;51378;-46
2022/01/06 02:06:04;;;;;;;;;99.00;78.50;;;;;;;;4942735;28;51329;-47
2022/01/06 02:08:48;;;;;;;;;94.00;76.75;;;;;;;;4942529;28;51107;-48
2022/01/06 02:11:33;;;;;;;;;98.75;81.00;;;;;;;;4942832;28;51134;-51
2022/01/06 02:14:17;;;;;;;;;93.50;78.50;;;;;;;;4942338;28;51496;-50
2022/01/06 02:17:02;;;;;;;;;97.50;83.50;;;;;;;;4942761;28;51421;-47
2022/01/06 02:19:54;;;;;;;;;102.50;80.75;;;;;;;;4942289;28;51179;-45
2022/01/06 02:22:39;;;;;;;;;106.50;82.75;;;;;;;;4942494;28;51118;-51
2022/01/06 02:25:29;;;;;;;;;118.50;98.25;;;;;;;;4942178;28;51384;-48
2022/01/06 02:28:13;;;;;;;;;119.00;105.50;;;;;;;;4941961;28;51062;-50
2022/01/06 02:30:58;;;;;;;;;128.00;106.75;;;;;;;;4942363;28;51146;-47
2022/01/06 02:33:42;;;;;;;;;131.75;110.25;;;;;;;;4946458;28;50987;-47
2022/01/06 02:36:27;;;;;;;;;144.25;116.75;;;;;;;;4960916;28;51150;-50
2022/01/06 02:39:12;;;;;;;;;121.00;104.00;;;;;;;;4961207;28;51376;-48
2022/01/06 02:41:56;;;;;;;;;131.00;110.25;;;;;;;;4961461;28;51496;-45
2022/01/06 02:44:40;;;;;;;;;125.75;103.75;;;;;;;;4961271;28;51208;-50
2022/01/06 02:47:25;;;;;;;;;132.50;106.50;;;;;;;;4936911;28;51218;-48
2022/01/06 02:50:10;;;;;;;;;129.00;107.00;;;;;;;;4941954;28;51438;-48
2022/01/06 02:52:54;;;;;;;;;126.00;109.00;;;;;;;;4941704;28;51385;-48
2022/01/06 02:55:41;;;;;;;;;135.50;110.75;;;;;;;;4941890;28;51373;-46
2022/01/06 02:58:25;;;;;;;;;128.25;106.75;;;;;;;;4941715;28;52213;-51
2022/01/06 03:01:10;;;;;;;;;128.25;108.75;;;;;;;;4941935;28;51136;-52
2022/01/06 03:03:54;;;;;;;;;127.00;109.50;;;;;;;;4941103;28;51507;-44
2022/01/06 03:06:39;;;;;;;;;136.25;114.25;;;;;;;;4941642;28;51911;-44
2022/01/06 03:09:35;;;;;;;;;137.50;113.50;;;;;;;;4941143;28;51095;-48
2022/01/06 03:12:33;;;;;;;;;132.00;118.50;;;;;;;;4941793;28;51267;-53
2022/01/06 03:15:19;;;;;;;;;137.25;112.00;;;;;;;;4941310;28;51158;-48
2022/01/06 03:18:03;;;;;;;;;140.75;119.00;;;;;;;;4941482;28;51229;-50
2022/01/06 03:20:47;;;;;;;;;133.75;114.00;;;;;;;;4941394;28;51733;-51
2022/01/06 03:23:32;;;;;;;;;127.00;104.25;;;;;;;;4959724;28;51492;-51
2022/01/06 03:26:16;;;;;;;;;127.50;112.00;;;;;;;;4960927;28;51235;-48
2022/01/06 03:29:00;;;;;;;;;135.25;115.50;;;;;;;;4960328;28;51417;-47
2022/01/06 03:31:45;;;;;;;;;123.50;106.50;;;;;;;;4960794;28;51188;-49
2022/01/06 03:34:32;;;;;;;;;139.25;118.25;;;;;;;;4946291;28;51184;-48
2022/01/06 03:37:16;;;;;;;;;129.75;112.25;;;;;;;;4941205;28;51020;-47
2022/01/06 03:40:04;;;;;;;;;138.50;117.25;;;;;;;;4941039;28;51367;-50
2022/01/06 03:42:49;;;;;;;;;129.50;111.50;;;;;;;;4940961;28;51185;-48
2022/01/06 03:45:34;;;;;;;;;126.25;103.50;;;;;;;;4940948;28;51098;-49
2022/01/06 03:48:18;;;;;;;;;137.25;113.00;;;;;;;;4940481;28;51223;-50
2022/01/06 03:51:03;;;;;;;;;134.75;107.25;;;;;;;;4941326;28;51158;-50
2022/01/06 03:53:47;;;;;;;;;138.75;114.00;;;;;;;;4940590;28;51503;-49
2022/01/06 03:56:31;;;;;;;;;128.50;108.00;;;;;;;;4940656;28;51317;-50
2022/01/06 03:59:16;;;;;;;;;137.00;117.00;;;;;;;;4940509;28;51052;-45
2022/01/06 04:02:01;;;;;;;;;134.25;106.25;;;;;;;;4941049;28;51076;-50
2022/01/06 04:04:45;;;;;;;;;148.00;121.50;;;;;;;;4940588;28;51623;-48
2022/01/06 04:07:29;;;;;;;;;142.25;114.25;;;;;;;;4940520;28;51211;-48
2022/01/06 04:10:14;;;;;;;;;152.00;129.75;;;;;;;;4940855;28;51235;-49
2022/01/06 04:12:58;;;;;;;;;147.25;119.00;;;;;;;;4940469;28;51093;-49
2022/01/06 04:15:44;;;;;;;;;130.75;113.50;;;;;;;;4940879;28;51182;-48
2022/01/06 04:18:29;;;;;;;;;136.25;114.25;;;;;;;;4940321;28;51480;-48
2022/01/06 04:21:13;;;;;;;;;143.25;115.75;;;;;;;;4940542;28;51221;-45
2022/01/06 04:23:57;;;;;;;;;135.75;111.00;;;;;;;;4940438;28;51154;-47
2022/01/06 04:26:42;;;;;;;;;123.50;102.25;;;;;;;;4940865;28;51062;-47
2022/01/06 04:29:26;;;;;;;;;131.00;106.75;;;;;;;;4940237;28;51217;-48
2022/01/06 04:32:10;;;;;;;;;130.25;114.25;;;;;;;;4940803;28;51060;-52
2022/01/06 04:34:55;;;;;;;;;130.25;105.25;;;;;;;;4940776;28;51140;-44
2022/01/06 04:37:39;;;;;;;;;116.75;103.50;;;;;;;;4958198;28;51130;-48
2022/01/06 04:40:24;;;;;;;;;138.50;119.00;;;;;;;;4948095;28;51124;-46
2022/01/06 04:43:08;;;;;;;;;130.00;107.75;;;;;;;;4940114;28;51156;-49
2022/01/06 04:45:52;;;;;;;;;132.50;116.25;;;;;;;;4940424;28;51225;-48
2022/01/06 04:48:37;;;;;;;;;126.50;109.50;;;;;;;;4940093;28;51048;-47
2022/01/06 04:51:21;;;;;;;;;136.50;119.50;;;;;;;;4940496;28;51116;-50
2022/01/06 04:54:06;;;;;;;;;133.50;118.25;;;;;;;;4940020;28;51075;-50
2022/01/06 04:56:50;;;;;;;;;129.25;119.50;;;;;;;;4939686;28;51146;-45
2022/01/06 04:59:34;;;;;;;;;132.50;117.50;;;;;;;;4940270;28;51212;-49
2022/01/06 05:02:19;;;;;;;;;135.75;117.00;;;;;;;;4943586;28;51035;-50
2022/01/06 05:05:04;;;;;;;;;142.25;122.50;;;;;;;;4943951;28;51051;-45
2022/01/06 05:07:48;;;;;;;;;127.75;111.50;;;;;;;;4943516;28;51172;-47
2022/01/06 05:10:32;;;;;;;;;127.75;103.75;;;;;;;;4943715;28;51202;-48
2022/01/06 05:13:16;;;;;;;;;129.00;112.00;;;;;;;;4943454;28;51052;-52
2022/01/06 05:16:01;;;;;;;;;117.00;105.00;;;;;;;;4943848;28;51246;-48
2022/01/06 05:18:45;;;;;;;;;126.00;104.00;;;;;;;;4943405;28;51151;-47
2022/01/06 05:21:30;;;;;;;;;111.00;98.00;;;;;;;;4943689;28;51166;-49
2022/01/06 05:24:16;;;;;;;;;125.00;107.50;;;;;;;;4943769;28;51085;-51
2022/01/06 05:27:00;;;;;;;;;119.00;104.75;;;;;;;;4943218;28;51154;-47
2022/01/06 05:29:45;;;;;;;;;129.50;115.25;;;;;;;;4943642;28;51103;-48
2022/01/06 05:32:29;;;;;;;;;114.50;102.00;;;;;;;;4943456;28;51357;-50
2022/01/06 05:35:14;;;;;;;;;132.25;113.75;;;;;;;;4943705;28;51148;-47
2022/01/06 05:37:58;;;;;;;;;127.50;110.75;;;;;;;;4960219;28;51105;-52
2022/01/06 05:40:43;;;;;;;;;117.75;98.25;;;;;;;;4963013;28;51122;-50
2022/01/06 05:43:27;;;;;;;;;134.00;113.50;;;;;;;;4962686;28;51063;-50
2022/01/06 05:46:12;;;;;;;;;129.25;112.75;;;;;;;;4962449;28;51214;-49
2022/01/06 05:48:56;;;;;;;;;129.75;109.00;;;;;;;;4962631;28;51450;-51
2022/01/06 05:51:40;;;;;;;;;127.00;115.25;;;;;;;;4962426;28;51058;-46
2022/01/06 05:54:25;;;;;;;;;136.00;122.75;;;;;;;;4962708;28;51102;-49
2022/01/06 05:57:09;;;;;;;;;129.00;114.75;;;;;;;;4962328;28;51189;-45
2022/01/06 05:59:53;;;;;;;;;134.75;113.50;;;;;;;;4962331;28;51078;-47
2022/01/06 06:02:38;;;;;;;;;140.50;126.25;;;;;;;;4962221;28;51036;-47
2022/01/06 06:05:22;;;;;;;;;140.00;118.75;;;;;;;;4962479;28;51087;-48
2022/01/06 06:08:06;;;;;;;;;141.00;119.00;;;;;;;;4961914;28;51545;-48
2022/01/06 06:10:51;;;;;;;;;130.00;111.25;;;;;;;;4962041;28;51137;-47
2022/01/06 06:13:35;;;;;;;;;132.25;118.00;;;;;;;;4956089;28;52659;-50
2022/01/06 06:16:20;;;;;;;;;133.75;113.25;;;;;;;;4942188;28;51334;-47
2022/01/06 06:19:04;;;;;;;;;135.50;111.75;;;;;;;;4942549;28;50993;-47
2022/01/06 06:21:49;;;;;;;;;154.75;132.00;;;;;;;;4942562;28;51053;-51
2022/01/06 06:24:33;;;;;;;;;137.00;120.75;;;;;;;;4942331;28;51167;-50
2022/01/06 06:27:17;;;;;;;;;139.75;123.00;;;;;;;;4941904;28;51154;-50
2022/01/06 06:30:03;;;;;;;;;152.00;132.00;;;;;;;;4942575;28;51204;-52
2022/01/06 06:32:47;;;;;;;;;119.75;107.50;;;;;;;;4942350;28;51143;-50
2022/01/06 06:35:32;;;;;;;;;165.00;141.50;;;;;;;;4921358;28;51300;-52
2022/01/06 06:38:16;;;;;;;;;141.00;122.00;;;;;;;;4954022;28;51136;-47
2022/01/06 06:41:00;;;;;;;;;123.25;107.75;;;;;;;;4935482;28;51113;-50
2022/01/06 06:43:45;;;;;;;;;129.50;114.00;;;;;;;;4961560;28;51205;-48
2022/01/06 06:46:29;;;;;;;;;121.25;106.50;;;;;;;;4961155;28;51080;-48
2022/01/06 06:49:13;;;;;;;;;144.25;115.00;;;;;;;;4961409;28;51393;-50
2022/01/06 06:51:58;;;;;;;;;131.00;110.75;;;;;;;;4961255;28;51043;-50
2022/01/06 06:54:42;;;;;;;;;155.75;137.25;;;;;;;;4910509;28;51281;-48
2022/01/06 06:57:27;;;;;;;;;131.75;120.75;;;;;;;;4964400;28;51161;-50
2022/01/06 07:00:12;;;;;;;;;136.75;122.75;;;;;;;;4951277;28;51134;-50
2022/01/06 07:02:56;;;;;;;;;119.75;103.75;;;;;;;;4959109;28;51233;-50
2022/01/06 07:05:40;;;;;;;;;141.25;120.00;;;;;;;;4954406;28;51093;-50
2022/01/06 07:08:25;;;;;;;;;148.00;133.00;;;;;;;;4952406;28;51131;-50
2022/01/06 07:11:09;;;;;;;;;146.50;133.00;;;;;;;;4953625;28;51958;-48
2022/01/06 07:13:53;;;;;;;;;190.50;161.00;;;;;;;;4953779;28;51620;-51
2022/01/06 07:16:38;;;;;;;;;172.75;149.75;;;;;;;;4956427;28;51157;-49
2022/01/06 07:19:22;;;;;;;;;192.50;169.75;;;;;;;;4949127;28;51157;-48
2022/01/06 07:22:07;;;;;;;;;203.25;181.25;;;;;;;;4953775;28;51020;-51
2022/01/06 07:24:51;;;;;;;;;202.50;175.00;;;;;;;;4960424;28;51158;-48
2022/01/06 07:27:36;;;;;;;;;177.75;150.00;;;;;;;;4952671;28;51383;-51
2022/01/06 07:30:20;;;;;;;;;154.75;129.00;;;;;;;;4957668;28;51110;-49
2022/01/06 07:33:04;;;;;;;;;141.50;116.00;;;;;;;;4960381;28;51565;-49
2022/01/06 07:35:49;;;;;;;;;145.00;124.25;;;;;;;;4958945;28;51272;-48
2022/01/06 07:38:33;;;;;;;;;142.75;124.25;;;;;;;;4960561;28;51083;-47
2022/01/06 07:41:18;;;;;;;;;155.25;124.25;;;;;;;;4960161;28;51166;-48
2022/01/06 07:44:06;;;;;;;;;152.50;132.00;;;;;;;;4949219;28;51222;-52
2022/01/06 07:46:50;;;;;;;;;162.75;145.00;;;;;;;;4947719;28;51168;-49
2022/01/06 07:49:34;;;;;;;;;150.75;130.50;;;;;;;;4946693;28;51079;-50
2022/01/06 07:52:19;;;;;;;;;159.50;129.75;;;;;;;;4949755;28;51375;-47
2022/01/06 07:55:03;;;;;;;;;152.75;128.75;;;;;;;;4960158;28;51142;-49
2022/01/06 07:57:47;;;;;;;;;134.50;113.50;;;;;;;;4952889;28;51431;-50
2022/01/06 08:00:32;;;;;;;;;124.50;105.25;;;;;;;;4960199;28;51119;-50
2022/01/06 08:03:16;;;;;;;;;118.25;96.50;;;;;;;;4960177;28;51360;-51
2022/01/06 08:06:01;;;;;;;;;111.50;97.00;;;;;;;;4959664;28;51253;-49
2022/01/06 08:08:45;;;;;;;;;107.50;89.00;;;;;;;;4960364;28;51121;-49
2022/01/06 08:11:29;;;;;;;;;99.75;80.25;;;;;;;;4959946;28;51358;-47
2022/01/06 08:14:14;;;;;;;;;109.50;95.50;;;;;;;;4942407;28;51223;-48
2022/01/06 08:17:00;;;;;;;;;123.50;103.50;;;;;;;;4955626;28;51498;-49
2022/01/06 08:19:52;;;;;;;;;96.00;81.00;;;;;;;;4947008;28;56910;-50
2022/01/06 08:22:36;;;;;;;;;111.75;97.75;;;;;;;;4934091;28;51749;-50
2022/01/06 08:25:27;;;;;;;;;115.25;93.25;;;;;;;;4960280;28;51203;-48
2022/01/06 08:28:12;;;;;;;;;107.25;93.00;;;;;;;;4964851;28;51494;-49
2022/01/06 08:30:56;;;;;;;;;104.25;86.50;;;;;;;;4952607;28;51235;-51
2022/01/06 08:33:40;;;;;;;;;101.50;84.00;;;;;;;;4947646;28;51338;-50
2022/01/06 08:36:24;;;;;;;;;105.00;84.75;;;;;;;;4949061;28;51466;-48
2022/01/06 08:39:09;;;;;;;;;100.50;84.25;;;;;;;;4952594;28;51190;-50
2022/01/06 08:41:53;;;;;;;;;74.00;54.00;;;;;;;;4960483;28;51485;-48
2022/01/06 08:44:39;;;;;;;;;100.00;85.50;;;;;;;;4959051;28;51427;-50
2022/01/06 08:47:23;;;;;;;;;94.00;82.25;;;;;;;;4957310;28;52137;-52
2022/01/06 08:50:08;;;;;;;;;95.50;79.50;;;;;;;;4954779;28;51143;-51
2022/01/06 08:52:52;;;;;;;;;90.75;75.75;;;;;;;;4950843;28;51550;-49
2022/01/06 08:55:37;;;;;;;;;83.75;72.75;;;;;;;;4950466;28;51206;-52
2022/01/06 08:58:22;;;;;;;;;90.00;73.50;;;;;;;;4957322;28;51351;-48
2022/01/06 09:01:06;;;;;;;;;86.75;71.25;;;;;;;;4960707;28;51131;-48
2022/01/06 09:03:51;;;;;;;;;88.25;68.00;;;;;;;;4947612;28;51187;-47
2022/01/06 09:06:35;;;;;;;;;80.25;61.50;;;;;;;;4958614;28;51107;-50
2022/01/06 09:09:20;;;;;;;;;68.75;55.75;;;;;;;;4962670;28;51157;-50
2022/01/06 09:12:05;;;;;;;;;79.50;61.25;;;;;;;;4952115;28;51522;-51
2022/01/06 09:14:49;;;;;;;;;73.25;64.50;;;;;;;;4959667;28;51146;-50
2022/01/06 09:17:36;;;;;;;;;78.25;61.00;;;;;;;;4961446;28;51520;-52
2022/01/06 09:20:20;;;;;;;;;73.00;61.50;;;;;;;;4961650;28;51561;-51
2022/01/06 09:23:04;;;;;;;;;68.50;54.50;;;;;;;;4961567;28;51083;-50
2022/01/06 09:25:49;;;;;;;;;67.25;50.75;;;;;;;;4958095;28;51524;-52
2022/01/06 09:28:33;;;;;;;;;66.25;44.75;;;;;;;;4961263;28;51226;-51
2022/01/06 09:31:17;;;;;;;;;58.00;41.25;;;;;;;;4961116;28;51629;-49
2022/01/06 09:34:05;;;;;;;;;52.50;37.75;;;;;;;;4961060;28;51205;-49
2022/01/06 09:36:49;;;;;;;;;55.25;41.00;;;;;;;;4960765;28;51163;-50
2022/01/06 09:39:34;;;;;;;;;53.75;41.50;;;;;;;;4960869;28;51333;-50
2022/01/06 09:42:19;;;;;;;;;58.75;42.25;;;;;;;;4960260;28;51130;-51
2022/01/06 09:45:04;;;;;;;;;57.00;38.50;;;;;;;;4956149;28;51229;-45
2022/01/06 09:47:48;;;;;;;;;44.50;32.75;;;;;;;;4941104;28;51226;-50
2022/01/06 09:50:33;;;;;;;;;60.50;40.25;;;;;;;;4956012;28;51399;-49
2022/01/06 09:53:17;;;;;;;;;45.00;32.00;;;;;;;;4959595;28;51113;-49
2022/01/06 09:56:02;;;;;;;;;55.75;38.00;;;;;;;;4952591;28;51241;-51
2022/01/06 09:58:46;;;;;;;;;55.50;40.00;;;;;;;;4953594;28;51255;-46
2022/01/06 10:01:30;;;;;;;;;55.25;40.25;;;;;;;;4932105;28;63509;-46
2022/01/06 10:04:19;;;;;;;;;56.00;39.00;;;;;;;;4941058;28;51191;-47
2022/01/06 10:07:08;;;;;;;;;53.50;38.25;;;;;;;;4934689;28;51115;-46
2022/01/06 10:09:52;;;;;;;;;54.25;41.75;;;;;;;;4941145;28;51111;-50
2022/01/06 10:12:39;;;;;;;;;56.25;39.50;;;;;;;;4939985;28;51083;-47
2022/01/06 10:15:24;;;;;;;;;56.75;40.50;;;;;;;;4939622;28;51108;-47
2022/01/06 10:18:11;;;;;;;;;56.25;40.50;;;;;;;;4921859;28;51215;-46
2022/01/06 10:20:58;;;;;;;;;60.00;41.75;;;;;;;;4939265;28;52082;-51
2022/01/06 10:23:42;;;;;;;;;56.25;41.50;;;;;;;;4940563;28;51144;-49
2022/01/06 10:26:27;;;;;;;;;55.50;40.50;;;;;;;;4937513;28;51547;-49
2022/01/06 10:29:11;;;;;;;;;55.00;41.50;;;;;;;;4940092;28;51151;-51
2022/01/06 10:32:03;;;;;;;;;63.50;44.25;;;;;;;;4953786;28;51345;-54
2022/01/06 10:34:48;;;;;;;;;59.75;44.00;;;;;;;;4941058;28;51163;-50
2022/01/06 10:37:35;;;;;;;;;57.00;42.25;;;;;;;;4937638;28;51270;-52
2022/01/06 10:40:22;;;;;;;;;58.00;41.75;;;;;;;;4937000;28;51573;-51
2022/01/06 10:43:06;;;;;;;;;50.25;36.25;;;;;;;;4940742;28;51163;-49
2022/01/06 10:45:59;;;;;;;;;64.00;48.50;;;;;;;;4938663;28;51040;-54
2022/01/06 10:48:44;;;;;;;;;60.75;46.75;;;;;;;;4939160;28;51088;-51
2022/01/06 10:51:33;;;;;;;;;58.00;45.00;;;;;;;;4935112;28;51163;-51
2022/01/06 10:54:22;;;;;;;;;66.00;46.75;;;;;;;;4934593;28;51124;-52
2022/01/06 10:57:12;;;;;;;;;63.50;47.00;;;;;;;;4932358;28;51852;-49
2022/01/06 10:59:57;;;;;;;;;63.25;45.25;;;;;;;;4933122;28;51623;-50
2022/01/06 11:02:41;;;;;;;;;60.25;44.50;;;;;;;;4938347;28;51884;-53
2022/01/06 11:05:26;;;;;;;;;63.75;45.25;;;;;;;;4933326;28;51220;-46
2022/01/06 11:08:10;;;;;;;;;57.75;42.00;;;;;;;;4936408;28;51296;-50
2022/01/06 11:11:14;;;;;;;;;54.25;41.25;;;;;;;;4937319;28;51095;-50
2022/01/06 11:13:58;;;;;;;;;63.00;47.00;;;;;;;;4926519;28;51235;-51
2022/01/06 11:16:43;;;;;;;;;61.00;44.50;;;;;;;;4934972;28;51220;-51
2022/01/06 11:19:28;;;;;;;;;61.75;46.75;;;;;;;;4935911;28;51417;-47
2022/01/06 11:22:13;;;;;;;;;63.00;46.25;;;;;;;;4930272;28;51142;-48
2022/01/06 11:25:03;;;;;;;;;70.00;49.75;;;;;;;;4932870;28;51131;-51
2022/01/06 11:27:47;;;;;;;;;64.75;47.50;;;;;;;;4937365;28;51052;-49
2022/01/06 11:30:45;;;;;;;;;67.50;51.00;;;;;;;;4935837;28;51124;-49
2022/01/06 11:33:39;;;;;;;;;64.00;47.75;;;;;;;;4940087;28;51329;-53
2022/01/06 11:36:31;;;;;;;;;67.00;48.75;;;;;;;;4940096;28;51170;-50
2022/01/06 11:39:28;;;;;;;;;58.00;44.00;;;;;;;;4938791;28;51126;-48
2022/01/06 11:42:18;;;;;;;;;63.00;45.75;;;;;;;;4938034;28;51480;-50
2022/01/06 11:45:05;;;;;;;;;62.75;45.25;;;;;;;;4935433;28;51902;-49
2022/01/06 11:48:03;;;;;;;;;67.75;54.50;;;;;;;;4932662;28;51755;-51
2022/01/06 11:50:48;;;;;;;;;63.50;46.75;;;;;;;;4930610;28;51445;-52
2022/01/06 11:53:33;;;;;;;;;64.50;46.50;;;;;;;;4938106;28;51012;-47
2022/01/06 11:56:18;;;;;;;;;62.75;50.25;;;;;;;;4925016;28;51165;-51
2022/01/06 11:59:03;;;;;;;;;66.50;50.00;;;;;;;;4937847;28;51234;-49
2022/01/06 12:01:49;;;;;;;;;67.50;52.25;;;;;;;;4936910;28;51206;-48
2022/01/06 12:04:33;;;;;;;;;67.50;48.50;;;;;;;;4939648;28;51167;-52
2022/01/06 12:07:18;;;;;;;;;66.00;49.00;;;;;;;;4932688;28;52315;-49
2022/01/06 12:10:07;;;;;;;;;65.25;48.50;;;;;;;;4939339;28;51167;-46
2022/01/06 12:12:58;;;;;;;;;65.50;46.75;;;;;;;;4939150;28;51798;-50
2022/01/06 12:15:53;;;;;;;;;60.75;43.50;;;;;;;;4939128;28;51219;-51
2022/01/06 12:18:38;;;;;;;;;59.75;43.25;;;;;;;;4939710;28;51151;-49
2022/01/06 12:21:22;;;;;;;;;68.75;51.00;;;;;;;;4939296;28;51504;-49
2022/01/06 12:24:08;;;;;;;;;68.00;47.25;;;;;;;;4939420;28;51717;-49
2022/01/06 12:26:53;;;;;;;;;67.00;49.75;;;;;;;;4939095;28;51306;-51
2022/01/06 12:29:38;;;;;;;;;66.75;49.75;;;;;;;;4937070;28;52126;-48
2022/01/06 12:32:23;;;;;;;;;67.50;51.00;;;;;;;;4939246;28;51555;-50
2022/01/06 12:35:07;;;;;;;;;64.00;48.00;;;;;;;;4939160;28;51158;-52
2022/01/06 12:37:58;;;;;;;;;66.25;50.25;;;;;;;;4939397;28;51421;-49
2022/01/06 12:40:43;;;;;;;;;72.00;54.75;;;;;;;;4940388;28;51076;-50
2022/01/06 12:43:29;;;;;;;;;70.25;51.75;;;;;;;;4939679;28;51151;-50
2022/01/06 12:46:14;;;;;;;;;61.25;46.25;;;;;;;;4939167;28;51131;-51
2022/01/06 12:48:59;;;;;;;;;70.50;52.50;;;;;;;;4939905;28;51614;-54
2022/01/06 12:51:44;;;;;;;;;70.00;52.75;;;;;;;;4939077;28;51114;-48
2022/01/06 12:54:30;;;;;;;;;66.75;49.00;;;;;;;;4939830;28;51097;-50
2022/01/06 12:57:14;;;;;;;;;69.50;54.25;;;;;;;;4939301;28;51110;-51
2022/01/06 12:59:58;;;;;;;;;67.00;47.50;;;;;;;;4928102;28;51147;-48
2022/01/06 13:02:53;;;;;;;;;71.50;54.00;;;;;;;;4936930;28;51478;-47
2022/01/06 13:05:37;;;;;;;;;72.50;55.25;;;;;;;;4938084;28;51115;-49
2022/01/06 13:08:22;;;;;;;;;67.75;50.50;;;;;;;;4938419;28;51324;-48
2022/01/06 13:11:07;;;;;;;;;71.50;56.00;;;;;;;;4938181;28;51516;-51
2022/01/06 13:13:54;;;;;;;;;70.00;54.00;;;;;;;;4936899;28;51192;-51
2022/01/06 13:16:39;;;;;;;;;72.25;55.75;;;;;;;;4938096;28;51218;-48
2022/01/06 13:19:25;;;;;;;;;64.50;51.50;;;;;;;;4938074;28;51147;-51
2022/01/06 13:22:15;;;;;;;;;71.25;54.75;;;;;;;;4940911;28;51218;-48
2022/01/06 13:25:08;;;;;;;;;69.75;51.75;;;;;;;;4941459;28;51206;-48
2022/01/06 13:28:11;;;;;;;;;66.00;49.75;;;;;;;;4941715;28;51722;-51
2022/01/06 13:30:56;;;;;;;;;68.25;51.00;;;;;;;;4941334;28;51171;-50
2022/01/06 13:33:40;;;;;;;;;71.75;50.00;;;;;;;;4942502;28;51170;-49
2022/01/06 13:36:33;;;;;;;;;69.75;50.50;;;;;;;;4942173;28;51889;-49
2022/01/06 13:39:17;;;;;;;;;70.50;51.50;;;;;;;;4940639;28;51593;-51
2022/01/06 13:42:02;;;;;;;;;72.50;56.00;;;;;;;;4938625;28;51463;-50
2022/01/06 13:44:51;;;;;;;;;68.50;51.75;;;;;;;;4941649;28;51160;-48
2022/01/06 13:53:49;;;;;;;;;73.75;51.75;;;;;;;;4960142;28;52722;-49
2022/01/06 13:56:34;;;;;;;;;72.00;54.75;;;;;;;;4941285;28;51292;-50
2022/01/06 13:59:19;;;;;;;;;69.75;49.50;;;;;;;;4960395;28;51082;-51
2022/01/06 14:02:03;;;;;;;;;70.00;52.00;;;;;;;;4960704;28;51153;-48
2022/01/06 14:04:48;;;;;;;;;69.00;51.75;;;;;;;;4960901;28;51681;-48
2022/01/06 14:07:32;;;;;;;;;70.25;52.75;;;;;;;;4960330;28;52126;-50
2022/01/06 14:10:16;;;;;;;;;71.50;54.75;;;;;;;;4958320;28;51222;-48
2022/01/06 14:13:01;;;;;;;;;72.50;53.75;;;;;;;;4954213;28;51076;-46
2022/01/06 14:15:46;;;;;;;;;70.25;51.50;;;;;;;;4952062;28;51118;-48
2022/01/06 14:18:31;;;;;;;;;61.25;48.75;;;;;;;;4961332;28;51467;-48
2022/01/06 14:21:15;;;;;;;;;67.50;51.25;;;;;;;;4961022;28;51254;-51
2022/01/06 14:24:00;;;;;;;;;75.50;60.25;;;;;;;;4958788;28;51099;-50
2022/01/06 14:26:44;;;;;;;;;71.00;54.25;;;;;;;;4959973;28;51133;-49
2022/01/06 14:29:29;;;;;;;;;71.00;52.50;;;;;;;;4951842;28;51749;-53
2022/01/06 14:32:15;;;;;;;;;70.50;54.00;;;;;;;;4948834;28;51053;-49
2022/01/06 14:35:03;;;;;;;;;66.00;54.75;;;;;;;;4954736;28;51288;-50
2022/01/06 14:37:48;;;;;;;;;70.50;53.75;;;;;;;;4953933;28;51395;-49
2022/01/06 14:40:34;;;;;;;;;72.00;52.25;;;;;;;;4952808;28;51019;-50
2022/01/06 14:43:20;;;;;;;;;74.00;58.50;;;;;;;;4948381;28;51334;-51
2022/01/06 14:46:05;;;;;;;;;76.25;57.25;;;;;;;;4957977;28;51534;-52
2022/01/06 14:48:59;;;;;;;;;72.00;55.25;;;;;;;;4956312;28;51157;-47
2022/01/06 14:51:43;;;;;;;;;74.75;57.50;;;;;;;;4952281;28;51545;-47
2022/01/06 14:54:40;;;;;;;;;69.50;50.75;;;;;;;;4951944;28;51193;-51
2022/01/06 14:57:30;;;;;;;;;70.25;55.00;;;;;;;;4956448;28;51145;-48
2022/01/06 15:00:15;;;;;;;;;71.25;52.25;;;;;;;;4955209;28;51190;-51
2022/01/06 15:03:04;;;;;;;;;83.75;65.25;;;;;;;;4957470;28;51483;-48
2022/01/06 15:05:51;;;;;;;;;75.50;54.75;;;;;;;;4966921;28;51211;-47
2022/01/06 15:08:40;;;;;;;;;73.25;56.75;;;;;;;;4960194;28;51647;-47
2022/01/06 15:11:26;;;;;;;;;71.00;53.00;;;;;;;;4956260;28;52169;-51
2022/01/06 15:14:12;;;;;;;;;74.75;55.25;;;;;;;;4959421;28;51214;-50
2022/01/06 15:17:06;;;;;;;;;78.25;63.25;;;;;;;;4959179;28;51201;-47
2022/01/06 15:19:51;;;;;;;;;54.50;44.00;;;;;;;;4959520;28;51217;-51
2022/01/06 15:22:36;;;;;;;;;77.75;61.00;;;;;;;;4960184;28;51714;-51
2022/01/06 15:25:28;;;;;;;;;78.50;66.25;;;;;;;;4960389;28;51137;-50
2022/01/06 15:28:19;;;;;;;;;75.75;56.50;;;;;;;;4959806;28;51179;-52
2022/01/06 15:31:11;;;;;;;;;75.25;57.25;;;;;;;;4959738;28;51181;-49
2022/01/06 15:34:00;;;;;;;;;76.25;65.75;;;;;;;;4960494;28;51075;-49
2022/01/06 15:36:47;;;;;;;;;76.00;64.25;;;;;;;;4959771;28;51625;-51
2022/01/06 15:39:42;;;;;;;;;76.00;62.50;;;;;;;;4960036;28;52305;-50
2022/01/06 15:42:27;;;;;;;;;74.50;64.50;;;;;;;;4986299;28;51506;-51
2022/01/06 15:45:22;;;;;;;;;74.75;55.75;;;;;;;;4958826;28;51592;-49
2022/01/06 15:48:07;;;;;;;;;75.50;62.50;;;;;;;;4960434;28;51139;-47
2022/01/06 15:50:53;;;;;;;;;74.75;61.00;;;;;;;;4960891;28;51078;-49
2022/01/06 15:53:39;;;;;;;;;78.00;63.50;;;;;;;;4959675;28;51403;-52
2022/01/06 15:56:25;;;;;;;;;66.75;56.50;;;;;;;;4959407;28;53991;-48
2022/01/06 15:59:25;;;;;;;;;74.25;55.25;;;;;;;;4959527;28;51233;-50
2022/01/06 16:05:16;;;;;;;;;69.50;50.75;;;;;;;;4959771;28;51047;-46
2022/01/06 16:08:02;;;;;;;;;67.25;50.75;;;;;;;;4959263;28;51438;-49